createdAt,value
2022-09-12T00:01:21.565Z,99.90
2022-09-12T00:03:53.611Z,99.90
2022-09-12T00:06:23.501Z,99.90
2022-09-12T00:08:51.903Z,99.90
2022-09-12T00:11:20.419Z,99.90
2022-09-12T00:13:48.891Z,99.90
2022-09-12T00:16:18.765Z,99.90
2022-09-12T00:18:48.096Z,99.90
2022-09-12T00:21:19.266Z,99.90
2022-09-12T00:23:47.859Z,99.90
2022-09-12T00:26:17.377Z,99.90
2022-09-12T00:28:46.070Z,99.90
2022-09-12T00:31:16.161Z,99.90
2022-09-12T00:33:44.766Z,99.90
2022-09-12T00:36:15.533Z,99.90
2022-09-12T00:38:46.633Z,99.90
2022-09-12T00:41:18.114Z,99.90
2022-09-12T00:43:48.233Z,99.90
2022-09-12T00:46:27.705Z,99.90
2022-09-12T00:49:01.176Z,99.90
2022-09-12T00:51:33.268Z,99.90
2022-09-12T00:54:09.297Z,99.90
2022-09-12T00:56:40.515Z,99.90
2022-09-12T00:59:13.841Z,99.90
2022-09-12T01:01:43.771Z,99.90
2022-09-12T01:04:13.552Z,99.90
2022-09-12T01:06:44.389Z,99.90
2022-09-12T01:09:18.573Z,99.90
2022-09-12T01:11:48.738Z,99.90
2022-09-12T01:14:18.429Z,99.90
2022-09-12T01:16:48.422Z,99.90
2022-09-12T01:19:38.227Z,99.90
2022-09-12T01:22:21.368Z,99.90
2022-09-12T01:25:09.449Z,99.90
2022-09-12T01:27:48.324Z,99.90
2022-09-12T01:30:46.772Z,99.90
2022-09-12T01:33:36.818Z,99.90
2022-09-12T01:36:28.461Z,99.90
2022-09-12T01:39:02.536Z,99.90
2022-09-12T01:41:41.578Z,99.90
2022-09-12T01:44:16.223Z,99.90
2022-09-12T01:46:52.911Z,99.90
2022-09-12T01:49:24.809Z,99.90
2022-09-12T01:51:58.762Z,99.90
2022-09-12T01:54:33.767Z,99.90
2022-09-12T01:57:09.001Z,99.90
2022-09-12T01:59:42.405Z,99.90
2022-09-12T02:02:16.344Z,99.90
2022-09-12T02:04:51.674Z,99.90
2022-09-12T02:07:22.587Z,99.90
2022-09-12T02:09:55.800Z,99.90
2022-09-12T02:12:29.201Z,99.90
2022-09-12T02:15:00.672Z,99.90
2022-09-12T02:17:33.748Z,99.90
2022-09-12T02:20:06.644Z,99.90
2022-09-12T02:22:38.695Z,99.90
2022-09-12T02:25:10.570Z,99.90
2022-09-12T02:27:42.359Z,99.90
2022-09-12T02:30:13.148Z,99.90
2022-09-12T02:32:47.718Z,99.90
2022-09-12T02:35:21.989Z,99.90
2022-09-12T02:37:59.673Z,99.90
2022-09-12T02:40:28.411Z,99.90
2022-09-12T02:42:57.013Z,99.90
2022-09-12T02:45:25.293Z,99.90
2022-09-12T02:47:59.799Z,99.90
2022-09-12T02:50:28.798Z,99.90
2022-09-12T02:52:59.952Z,99.90
2022-09-12T02:55:30.612Z,99.90
2022-09-12T02:57:58.870Z,99.90
2022-09-12T03:00:28.052Z,99.90
2022-09-12T03:03:18.109Z,99.90
2022-09-12T03:05:54.599Z,99.90
2022-09-12T03:08:42.188Z,99.90
2022-09-12T03:11:49.028Z,99.90
2022-09-12T03:14:31.227Z,99.90
2022-09-12T03:17:09.480Z,99.90
2022-09-12T03:19:48.662Z,99.90
2022-09-12T03:22:23.513Z,99.90
2022-09-12T03:24:58.841Z,99.90
2022-09-12T03:27:32.202Z,99.90
2022-09-12T03:30:01.765Z,99.90
2022-09-12T03:32:43.429Z,99.90
2022-09-12T03:35:14.610Z,99.90
2022-09-12T03:37:42.950Z,99.90
2022-09-12T03:40:13.046Z,99.90
2022-09-12T03:42:41.497Z,99.90
2022-09-12T03:45:11.365Z,99.90
2022-09-12T03:47:39.787Z,99.90
2022-09-12T03:50:08.834Z,99.90
2022-09-12T03:52:38.488Z,99.90
2022-09-12T03:55:07.966Z,99.90
2022-09-12T03:57:36.181Z,99.90
2022-09-12T04:00:07.261Z,99.90
2022-09-12T04:02:35.744Z,99.90
2022-09-12T04:05:04.268Z,99.90
2022-09-12T04:07:32.474Z,99.90
2022-09-12T04:10:02.271Z,99.90
2022-09-12T04:12:31.014Z,99.90
2022-09-12T04:14:59.188Z,99.90
2022-09-12T04:17:27.340Z,99.90
2022-09-12T04:19:55.554Z,99.90
2022-09-12T04:22:23.937Z,99.90
2022-09-12T04:24:52.803Z,99.90
2022-09-12T04:27:22.560Z,99.90
2022-09-12T04:29:50.811Z,99.90
2022-09-12T04:32:19.009Z,99.90
2022-09-12T04:34:47.290Z,99.90
2022-09-12T04:37:16.978Z,99.90
2022-09-12T04:39:45.303Z,99.90
2022-09-12T04:42:13.632Z,99.90
2022-09-12T04:44:43.301Z,99.90
2022-09-12T04:47:11.530Z,99.90
2022-09-12T04:49:39.582Z,99.90
2022-09-12T04:52:08.196Z,99.90
2022-09-12T04:54:36.413Z,99.90
2022-09-12T04:57:04.853Z,99.90
2022-09-12T04:59:33.216Z,99.90
2022-09-12T05:02:03.197Z,99.90
2022-09-12T05:04:31.753Z,99.90
2022-09-12T05:07:00.033Z,99.90
2022-09-12T05:09:29.227Z,99.90
2022-09-12T05:12:04.166Z,99.90
2022-09-12T05:14:33.917Z,99.90
2022-09-12T05:17:04.760Z,99.90
2022-09-12T05:19:33.522Z,99.90
2022-09-12T05:22:01.753Z,99.90
2022-09-12T05:24:30.256Z,99.90
2022-09-12T05:26:58.479Z,99.90
2022-09-12T05:29:27.127Z,99.90
2022-09-12T05:31:55.203Z,99.90
2022-09-12T05:34:25.131Z,99.90
2022-09-12T05:36:53.362Z,99.90
2022-09-12T05:39:21.833Z,99.90
2022-09-12T05:41:50.052Z,99.90
2022-09-12T05:44:18.253Z,99.90
2022-09-12T05:46:50.468Z,99.90
2022-09-12T05:49:19.010Z,99.90
2022-09-12T05:51:48.567Z,99.90
2022-09-12T05:54:19.497Z,99.90
2022-09-12T05:56:49.265Z,99.90
2022-09-12T05:59:21.900Z,99.90
2022-09-12T06:01:50.324Z,99.90
2022-09-12T06:04:18.589Z,99.90
2022-09-12T06:06:48.936Z,99.90
2022-09-12T06:09:18.403Z,99.90
2022-09-12T06:11:47.643Z,99.90
2022-09-12T06:14:17.605Z,99.90
2022-09-12T06:16:46.310Z,99.90
2022-09-12T06:19:17.125Z,99.90
2022-09-12T06:21:45.845Z,99.90
2022-09-12T06:24:15.617Z,99.90
2022-09-12T06:26:43.919Z,99.90
2022-09-12T06:29:13.447Z,99.90
2022-09-12T06:31:42.966Z,99.90
2022-09-12T06:34:13.328Z,99.90
2022-09-12T06:36:43.561Z,99.90
2022-09-12T06:39:16.336Z,99.90
2022-09-12T06:41:45.499Z,99.90
2022-09-12T06:44:16.160Z,99.90
2022-09-12T06:46:44.690Z,99.90
2022-09-12T06:49:13.418Z,99.90
2022-09-12T06:51:43.406Z,99.90
2022-09-12T06:54:15.594Z,99.90
2022-09-12T06:56:44.169Z,99.90
2022-09-12T06:59:12.525Z,99.90
2022-09-12T07:01:42.663Z,99.90
2022-09-12T07:04:11.583Z,99.90
2022-09-12T07:06:41.235Z,99.90
2022-09-12T07:09:12.476Z,99.90
2022-09-12T07:11:43.950Z,99.90
2022-09-12T07:14:15.354Z,99.90
2022-09-12T07:16:44.132Z,99.90
2022-09-12T07:19:12.457Z,99.90
2022-09-12T07:21:41.737Z,99.90
2022-09-12T07:24:11.152Z,99.90
2022-09-12T07:26:42.689Z,99.90
2022-09-12T07:29:35.871Z,99.90
2022-09-12T07:32:05.842Z,99.90
2022-09-12T07:34:34.226Z,99.90
2022-09-12T07:37:02.568Z,99.90
2022-09-12T07:39:30.813Z,99.90
2022-09-12T07:42:00.681Z,99.90
2022-09-12T07:44:29.484Z,99.90
2022-09-12T07:46:57.721Z,99.90
2022-09-12T07:49:25.995Z,99.90
2022-09-12T07:51:54.227Z,99.90
2022-09-12T07:54:22.666Z,99.90
2022-09-12T07:56:50.994Z,99.90
2022-09-12T07:59:41.543Z,99.90
2022-09-12T08:02:16.816Z,99.90
2022-09-12T08:04:46.196Z,99.90
2022-09-12T08:07:14.304Z,99.90
2022-09-12T08:09:42.589Z,99.90
2022-09-12T08:12:10.805Z,99.90
2022-09-12T08:14:40.677Z,99.90
2022-09-12T08:17:08.880Z,99.90
2022-09-12T08:19:37.199Z,99.90
2022-09-12T08:22:05.558Z,99.90
2022-09-12T08:24:33.711Z,99.90
2022-09-12T08:27:01.909Z,99.90
2022-09-12T08:29:30.113Z,99.90
2022-09-12T08:31:59.838Z,99.90
2022-09-12T08:34:28.118Z,99.90
2022-09-12T08:36:56.397Z,99.90
2022-09-12T08:39:25.600Z,99.90
2022-09-12T08:42:01.880Z,99.90
2022-09-12T08:44:54.677Z,99.90
2022-09-12T08:47:29.137Z,99.90
2022-09-12T08:50:15.357Z,99.90
2022-09-12T08:52:53.187Z,99.90
2022-09-12T08:55:32.468Z,99.90
2022-09-12T08:58:01.548Z,99.90
2022-09-12T09:00:43.438Z,99.90
2022-09-12T09:03:47.782Z,99.90
2022-09-12T09:06:26.862Z,99.90
2022-09-12T09:09:06.750Z,99.90
2022-09-12T09:11:57.675Z,99.90
2022-09-12T09:14:51.514Z,99.90
2022-09-12T09:17:25.508Z,99.90
2022-09-12T09:20:04.604Z,99.90
2022-09-12T09:22:49.200Z,99.90
2022-09-12T09:25:23.217Z,99.90
2022-09-12T09:28:07.492Z,99.90
2022-09-12T09:30:37.462Z,99.90
2022-09-12T09:33:12.637Z,99.90
2022-09-12T09:35:46.332Z,99.90
2022-09-12T09:38:26.042Z,99.90
2022-09-12T09:41:18.817Z,99.90
2022-09-12T09:43:47.230Z,99.90
2022-09-12T09:46:16.316Z,99.90
2022-09-12T09:48:47.725Z,99.90
2022-09-12T09:51:21.420Z,99.90
2022-09-12T09:53:53.237Z,99.90
2022-09-12T09:56:29.964Z,99.90
2022-09-12T09:58:58.410Z,99.90
2022-09-12T10:01:28.281Z,99.90
2022-09-12T10:03:57.521Z,99.90
2022-09-12T10:06:34.491Z,99.90
2022-09-12T10:09:22.387Z,99.90
2022-09-12T10:11:51.740Z,99.90
2022-09-12T10:14:32.226Z,99.90
2022-09-12T10:17:00.716Z,99.90
2022-09-12T10:19:36.750Z,99.90
2022-09-12T10:22:08.138Z,99.90
2022-09-12T10:24:41.383Z,99.90
2022-09-12T10:27:16.289Z,99.90
2022-09-12T10:29:48.600Z,99.90
2022-09-12T10:32:30.881Z,99.90
2022-09-12T10:35:03.027Z,99.90
2022-09-12T10:37:36.158Z,99.90
2022-09-12T10:40:06.979Z,99.90
2022-09-12T10:42:50.636Z,99.90
2022-09-12T10:45:30.999Z,99.90
2022-09-12T10:48:05.419Z,99.90
2022-09-12T10:50:40.557Z,99.90
2022-09-12T10:53:20.477Z,99.90
2022-09-12T10:56:05.435Z,99.90
2022-09-12T10:58:48.245Z,99.90
2022-09-12T11:01:33.953Z,99.90
2022-09-12T11:04:21.639Z,99.90
2022-09-12T11:07:03.647Z,99.90
2022-09-12T11:09:40.029Z,99.90
2022-09-12T11:12:18.561Z,99.90
2022-09-12T11:15:01.659Z,99.90
2022-09-12T11:17:42.801Z,99.90
2022-09-12T11:20:26.144Z,99.90
2022-09-12T11:23:24.393Z,99.90
2022-09-12T11:26:00.186Z,99.90
2022-09-12T11:28:36.349Z,99.90
2022-09-12T11:31:21.463Z,99.90
2022-09-12T11:33:54.984Z,99.90
2022-09-12T11:36:34.472Z,99.90
2022-09-12T11:39:14.768Z,99.90
2022-09-12T11:41:50.253Z,99.90
2022-09-12T11:44:23.525Z,99.90
2022-09-12T11:46:52.346Z,99.40
2022-09-12T11:49:35.648Z,99.00
2022-09-12T11:52:08.848Z,99.50
2022-09-12T11:54:41.093Z,97.60
2022-09-12T11:57:16.926Z,97.90
2022-09-12T11:59:50.748Z,98.50
2022-09-12T12:02:27.899Z,98.60
2022-09-12T12:05:05.109Z,97.60
2022-09-12T12:07:45.388Z,97.10
2022-09-12T12:10:31.078Z,97.50
2022-09-12T12:13:04.531Z,98.30
2022-09-12T12:15:33.419Z,98.40
2022-09-12T12:18:08.196Z,99.20
2022-09-12T12:20:37.234Z,99.90
2022-09-12T12:23:05.871Z,99.90
2022-09-12T12:25:51.505Z,99.40
2022-09-12T12:28:52.765Z,98.50
2022-09-12T12:31:23.868Z,99.20
2022-09-12T12:34:27.644Z,99.00
2022-09-12T12:36:55.925Z,99.80
2022-09-12T12:40:01.109Z,99.90
2022-09-12T12:43:07.769Z,99.90
2022-09-12T12:46:10.750Z,98.50
2022-09-12T12:48:51.703Z,99.00
2022-09-12T12:51:39.112Z,96.40
2022-09-12T12:54:31.590Z,96.80
2022-09-12T12:57:16.896Z,96.80
2022-09-12T12:59:49.943Z,96.90
2022-09-12T13:02:23.883Z,97.50
2022-09-12T13:04:55.556Z,97.30
2022-09-12T13:07:31.237Z,96.50
2022-09-12T13:10:01.408Z,97.10
2022-09-12T13:12:33.288Z,98.00
2022-09-12T13:15:02.945Z,97.80
2022-09-12T13:17:35.672Z,95.70
2022-09-12T13:20:29.907Z,95.70
2022-09-12T13:22:59.367Z,96.70
2022-09-12T13:25:31.436Z,97.80
2022-09-12T13:28:02.044Z,96.60
2022-09-12T13:30:32.510Z,96.20
2022-09-12T13:33:11.367Z,97.10
2022-09-12T13:36:12.234Z,95.70
2022-09-12T13:38:51.400Z,93.60
2022-09-12T13:41:40.553Z,93.80
2022-09-12T13:44:13.377Z,93.50
2022-09-12T13:46:42.638Z,93.10
2022-09-12T13:49:19.545Z,93.10
2022-09-12T13:51:57.768Z,93.30
2022-09-12T13:54:27.356Z,93.10
2022-09-12T13:56:55.718Z,93.20
2022-09-12T13:59:24.509Z,94.60
2022-09-12T14:01:53.282Z,94.50
2022-09-12T14:04:40.467Z,94.60
2022-09-12T14:07:17.396Z,95.50
2022-09-12T14:09:47.314Z,95.40
2022-09-12T14:12:22.258Z,95.70
2022-09-12T14:14:53.269Z,96.90
2022-09-12T14:17:29.905Z,97.20
2022-09-12T14:19:59.570Z,96.40
2022-09-12T14:22:29.940Z,96.50
2022-09-12T14:25:00.208Z,97.20
2022-09-12T14:27:31.695Z,97.30
2022-09-12T14:30:09.171Z,97.80
2022-09-12T14:32:37.469Z,97.80
2022-09-12T14:35:19.873Z,97.50
2022-09-12T14:37:52.540Z,98.00
2022-09-12T14:40:22.681Z,97.70
2022-09-12T14:42:56.893Z,97.70
2022-09-12T14:45:32.220Z,98.20
2022-09-12T14:48:00.719Z,98.10
2022-09-12T14:50:31.735Z,98.10
2022-09-12T14:53:21.121Z,98.50
2022-09-12T14:55:54.235Z,99.20
2022-09-12T14:58:28.410Z,98.80
2022-09-12T15:00:59.606Z,98.20
2022-09-12T15:03:31.663Z,97.40
2022-09-12T15:06:00.757Z,98.00
2022-09-12T15:08:30.628Z,98.30
2022-09-12T15:10:59.835Z,97.70
2022-09-12T15:13:30.272Z,97.30
2022-09-12T15:16:00.079Z,97.70
2022-09-12T15:18:30.093Z,98.00
2022-09-12T15:21:03.473Z,97.90
2022-09-12T15:23:38.222Z,97.90
2022-09-12T15:26:07.056Z,98.00
2022-09-12T15:28:35.810Z,98.40
2022-09-12T15:31:08.517Z,97.60
2022-09-12T15:33:36.883Z,98.50
2022-09-12T15:36:13.249Z,98.00
2022-09-12T15:38:42.846Z,98.30
2022-09-12T15:41:14.438Z,98.40
2022-09-12T15:43:42.766Z,98.70
2022-09-12T15:46:13.196Z,98.70
2022-09-12T15:48:41.596Z,99.60
2022-09-12T15:51:15.468Z,99.60
2022-09-12T15:53:46.723Z,99.90
2022-09-12T15:56:15.957Z,99.50
2022-09-12T15:58:57.768Z,99.60
2022-09-12T16:01:27.093Z,99.80
2022-09-12T16:03:55.446Z,99.10
2022-09-12T16:06:23.743Z,98.40
2022-09-12T16:08:53.463Z,98.10
2022-09-12T16:11:24.617Z,99.30
2022-09-12T16:13:54.174Z,99.10
2022-09-12T16:16:22.778Z,98.80
2022-09-12T16:18:51.288Z,98.80
2022-09-12T16:21:19.524Z,98.70
2022-09-12T16:23:49.051Z,99.20
2022-09-12T16:26:19.159Z,99.30
2022-09-12T16:28:47.610Z,99.20
2022-09-12T16:31:16.081Z,99.60
2022-09-12T16:33:44.325Z,99.90
2022-09-12T16:36:15.533Z,99.90
2022-09-12T16:38:44.435Z,99.90
2022-09-12T16:41:13.235Z,99.90
2022-09-12T16:43:43.678Z,99.90
2022-09-12T16:46:16.038Z,99.90
2022-09-12T16:48:50.966Z,99.90
2022-09-12T16:51:21.741Z,99.90
2022-09-12T16:53:50.148Z,99.90
2022-09-12T16:56:18.454Z,99.90
2022-09-12T16:58:49.132Z,99.90
2022-09-12T17:01:20.346Z,99.90
2022-09-12T17:03:48.925Z,99.90
2022-09-12T17:06:18.783Z,99.90
2022-09-12T17:08:50.495Z,99.90
2022-09-12T17:11:20.434Z,99.90
2022-09-12T17:14:04.279Z,99.90
2022-09-12T17:16:33.669Z,99.90
2022-09-12T17:19:01.939Z,99.90
2022-09-12T17:21:30.234Z,99.90
2022-09-12T17:23:59.273Z,99.90
2022-09-12T17:26:28.253Z,99.90
2022-09-12T17:28:57.927Z,99.90
2022-09-12T17:31:26.756Z,99.90
2022-09-12T17:33:58.451Z,99.90
2022-09-12T17:36:27.608Z,99.90
2022-09-12T17:38:56.151Z,99.90
2022-09-12T17:41:26.595Z,99.90
2022-09-12T17:43:57.466Z,99.90
2022-09-12T17:46:31.920Z,99.90
2022-09-12T17:49:01.088Z,99.90
2022-09-12T17:51:31.720Z,99.90
2022-09-12T17:54:01.250Z,99.90
2022-09-12T17:56:30.892Z,99.90
2022-09-12T17:59:00.212Z,99.90
2022-09-12T18:01:48.665Z,99.90
2022-09-12T18:04:17.739Z,99.90
2022-09-12T18:06:48.717Z,99.90
2022-09-12T18:09:19.394Z,99.90
2022-09-12T18:11:48.307Z,99.90
2022-09-12T18:14:17.228Z,99.90
2022-09-12T18:16:47.863Z,99.90
2022-09-12T18:19:16.814Z,99.90
2022-09-12T18:21:45.541Z,99.90
2022-09-12T18:24:13.954Z,99.90
2022-09-12T18:26:43.643Z,99.90
2022-09-12T18:29:12.601Z,99.90
2022-09-12T18:31:41.024Z,99.90
2022-09-12T18:34:14.031Z,99.90
2022-09-12T18:36:42.729Z,99.90
2022-09-12T18:39:11.694Z,99.90
2022-09-12T18:41:40.363Z,99.90
2022-09-12T18:44:09.182Z,99.90
2022-09-12T18:46:37.518Z,99.90
2022-09-12T18:49:07.691Z,99.90
2022-09-12T18:51:41.813Z,99.90
2022-09-12T18:54:14.369Z,99.90
2022-09-12T18:56:44.081Z,99.90
2022-09-12T18:59:14.901Z,99.90
2022-09-12T19:01:44.408Z,99.90
2022-09-12T19:04:14.331Z,99.90
2022-09-12T19:06:46.109Z,99.90
2022-09-12T19:09:16.169Z,99.90
2022-09-12T19:11:49.723Z,99.90
2022-09-12T19:14:19.214Z,99.90
2022-09-12T19:16:47.751Z,99.90
2022-09-12T19:19:16.195Z,99.90
2022-09-12T19:21:47.761Z,99.90
2022-09-12T19:24:17.149Z,99.90
2022-09-12T19:26:46.059Z,99.90
2022-09-12T19:29:14.841Z,99.90
2022-09-12T19:31:43.121Z,99.90
2022-09-12T19:34:12.209Z,99.90
2022-09-12T19:36:45.952Z,99.90
2022-09-12T19:39:17.592Z,99.90
2022-09-12T19:41:46.211Z,99.90
2022-09-12T19:44:14.632Z,99.90
2022-09-12T19:46:42.937Z,99.90
2022-09-12T19:49:13.150Z,99.90
2022-09-12T19:51:41.819Z,99.90
2022-09-12T19:54:10.219Z,99.90
2022-09-12T19:56:39.835Z,99.90
2022-09-12T19:59:08.741Z,99.90
2022-09-12T20:01:37.748Z,99.90
2022-09-12T20:04:06.943Z,99.90
2022-09-12T20:06:35.980Z,99.90
2022-09-12T20:09:04.633Z,99.90
2022-09-12T20:11:32.796Z,99.90
2022-09-12T20:14:02.664Z,99.90
2022-09-12T20:16:31.289Z,99.90
2022-09-12T20:19:01.343Z,99.90
2022-09-12T20:21:34.263Z,99.90
2022-09-12T20:24:04.102Z,99.90
2022-09-12T20:26:32.855Z,99.90
2022-09-12T20:29:02.539Z,99.90
2022-09-12T20:31:31.244Z,99.90
2022-09-12T20:33:59.535Z,99.90
2022-09-12T20:36:28.331Z,99.90
2022-09-12T20:38:58.145Z,99.90
2022-09-12T20:41:27.724Z,99.90
2022-09-12T20:43:58.023Z,99.90
2022-09-12T20:46:29.074Z,99.90
2022-09-12T20:48:58.620Z,99.90
2022-09-12T20:51:29.771Z,99.90
2022-09-12T20:53:58.768Z,99.90
2022-09-12T20:56:27.786Z,99.90
2022-09-12T20:58:57.004Z,99.90
2022-09-12T21:01:26.374Z,99.90
2022-09-12T21:03:56.301Z,99.90
2022-09-12T21:06:24.540Z,99.90
2022-09-12T21:08:53.994Z,99.90
2022-09-12T21:11:22.267Z,99.90
2022-09-12T21:13:50.622Z,99.90
2022-09-12T21:16:20.358Z,99.90
2022-09-12T21:18:49.155Z,99.90
2022-09-12T21:21:18.840Z,99.90
2022-09-12T21:23:47.123Z,99.90
2022-09-12T21:26:15.405Z,99.90
2022-09-12T21:28:43.647Z,99.90
2022-09-12T21:31:12.086Z,99.90
2022-09-12T21:33:40.530Z,99.90
2022-09-12T21:36:09.718Z,99.90
2022-09-12T21:38:39.683Z,99.90
2022-09-12T21:41:09.480Z,99.90
2022-09-12T21:43:38.626Z,99.90
2022-09-12T21:46:08.480Z,99.90
2022-09-12T21:48:37.441Z,99.90
2022-09-12T21:51:06.031Z,99.90
2022-09-12T21:53:34.228Z,99.90
2022-09-12T21:56:05.476Z,99.90
2022-09-12T21:58:33.736Z,99.90
2022-09-12T22:01:02.175Z,99.90
2022-09-12T22:03:30.810Z,99.90
2022-09-12T22:06:00.002Z,99.90
2022-09-12T22:08:29.348Z,99.90
2022-09-12T22:11:00.800Z,99.90
2022-09-12T22:13:31.449Z,99.90
2022-09-12T22:16:00.672Z,99.90
2022-09-12T22:18:29.112Z,99.90
2022-09-12T22:21:02.184Z,99.90
2022-09-12T22:23:47.452Z,99.90
2022-09-12T22:26:15.778Z,99.90
2022-09-12T22:28:47.313Z,99.90
2022-09-12T22:31:16.846Z,99.90
2022-09-12T22:33:45.917Z,99.90
2022-09-12T22:36:14.526Z,99.90
2022-09-12T22:38:42.717Z,99.90
2022-09-12T22:41:13.304Z,99.90
2022-09-12T22:43:42.024Z,99.90
2022-09-12T22:46:13.584Z,99.90
2022-09-12T22:48:42.888Z,99.90
2022-09-12T22:51:11.400Z,99.90
2022-09-12T22:53:39.703Z,99.90
2022-09-12T22:56:09.185Z,99.90
2022-09-12T22:58:38.388Z,99.90
2022-09-12T23:01:07.625Z,99.90
2022-09-12T23:03:38.303Z,99.90
2022-09-12T23:06:07.151Z,99.90
2022-09-12T23:08:36.605Z,99.90
2022-09-12T23:11:06.424Z,99.90
2022-09-12T23:13:34.702Z,99.90
2022-09-12T23:16:04.947Z,99.90
2022-09-12T23:18:37.327Z,99.90
2022-09-12T23:21:07.450Z,99.90
2022-09-12T23:23:36.539Z,99.90
2022-09-12T23:26:06.685Z,99.90
2022-09-12T23:28:35.114Z,99.90
2022-09-12T23:31:04.023Z,99.90
2022-09-12T23:33:33.457Z,99.90
2022-09-12T23:36:05.305Z,99.90
2022-09-12T23:38:35.030Z,99.90
2022-09-12T23:41:03.884Z,99.90
2022-09-12T23:43:32.572Z,99.90
2022-09-12T23:46:01.122Z,99.90
2022-09-12T23:48:29.634Z,99.90
2022-09-12T23:50:58.333Z,99.90
2022-09-12T23:53:28.298Z,99.90
2022-09-12T23:55:56.608Z,99.90
2022-09-12T23:58:25.153Z,99.90
